Time;durP1;ratioP1;P1;durP2;ratioP2;P2;SDS_P1;SDS_P2;PMS_P1;PMS_P2;Temp;Humidity;BMP_temperature;BMP_pressure;BME280_temperature;BME280_humidity;BME280_pressure;Samples;Min_cycle;Max_cycle;Signal;HPM_P1;HPM_P2
2021/03/03 00:01:25;;;;;;;12.18;9.88;;;;;;;10.71;51.78;102229.28;4923536;28;98855;-63
2021/03/03 00:03:51;;;;;;;12.38;9.63;;;;;;;10.68;51.58;102228.91;4921805;28;126213;-63
2021/03/03 00:06:17;;;;;;;11.55;9.68;;;;;;;10.67;52.12;102229.97;4922619;28;127713;-62
2021/03/03 00:08:43;;;;;;;12.80;9.85;;;;;;;10.62;51.91;102236.03;4922906;28;120867;-63
2021/03/03 00:11:09;;;;;;;13.15;10.20;;;;;;;10.59;51.90;102228.41;4922243;28;118901;-63
2021/03/03 00:13:35;;;;;;;11.35;10.07;;;;;;;10.56;51.97;102224.25;4922243;28;124854;-63
2021/03/03 00:16:01;;;;;;;12.57;10.52;;;;;;;10.58;51.96;102221.38;4904141;28;126848;-63
2021/03/03 00:18:27;;;;;;;13.70;10.50;;;;;;;10.63;52.15;102228.78;4920448;28;128183;-63
2021/03/03 00:20:53;;;;;;;12.93;10.50;;;;;;;10.56;51.11;102221.56;4922756;28;118277;-63
2021/03/03 00:23:19;;;;;;;13.23;10.95;;;;;;;10.57;52.17;102219.69;4920283;28;127687;-63
2021/03/03 00:25:45;;;;;;;11.95;10.38;;;;;;;10.51;51.63;102218.72;4904008;28;127794;-63
2021/03/03 00:28:11;;;;;;;13.75;11.38;;;;;;;10.55;52.44;102222.63;4922417;28;127436;-63
2021/03/03 00:30:37;;;;;;;12.93;10.73;;;;;;;10.50;51.94;102227.06;4924029;28;98207;-63
2021/03/03 00:33:04;;;;;;;12.45;10.52;;;;;;;10.47;51.56;102227.50;4922601;28;125983;-63
2021/03/03 00:35:30;;;;;;;12.35;10.75;;;;;;;10.45;51.91;102226.88;4904077;28;122201;-63
2021/03/03 00:37:56;;;;;;;12.70;10.27;;;;;;;10.43;51.93;102219.03;4922406;28;126985;-63
2021/03/03 00:40:22;;;;;;;13.32;10.57;;;;;;;10.40;51.51;102221.34;4922970;28;117334;-63
2021/03/03 00:42:48;;;;;;;12.25;10.13;;;;;;;10.40;51.22;102224.03;4922194;28;128205;-63
2021/03/03 00:45:14;;;;;;;13.52;10.55;;;;;;;10.43;52.00;102229.00;4923267;28;99147;-63
2021/03/03 00:47:40;;;;;;;14.02;10.80;;;;;;;10.42;51.47;102225.47;4923360;28;97948;-63
2021/03/03 00:50:07;;;;;;;12.52;10.20;;;;;;;10.37;52.14;102221.78;4922649;28;97918;-63
2021/03/03 00:52:33;;;;;;;11.63;9.68;;;;;;;10.37;51.34;102216.41;4920381;28;116881;-63
2021/03/03 00:54:59;;;;;;;12.77;10.18;;;;;;;10.31;51.42;102213.56;4921372;28;128370;-63
2021/03/03 00:57:25;;;;;;;11.20;9.55;;;;;;;10.28;52.26;102213.16;4922148;28;115696;-63
2021/03/03 00:59:51;;;;;;;12.23;9.70;;;;;;;10.26;52.06;102221.50;4921513;28;116631;-63
2021/03/03 01:02:17;;;;;;;13.85;10.45;;;;;;;10.29;51.99;102214.81;4922870;28;100008;-63
2021/03/03 01:04:44;;;;;;;11.60;9.63;;;;;;;10.30;51.57;102214.59;4922683;28;98457;-63
2021/03/03 01:07:11;;;;;;;11.23;9.48;;;;;;;10.23;51.52;102210.31;4923069;28;98417;-63
2021/03/03 01:09:37;;;;;;;11.25;9.68;;;;;;;10.23;52.19;102205.72;4923091;28;97853;-63
2021/03/03 01:12:03;;;;;;;10.98;9.45;;;;;;;10.22;51.88;102212.19;4922733;28;98669;-63
2021/03/03 01:14:29;;;;;;;12.48;9.52;;;;;;;10.22;51.68;102203.28;4920728;28;98469;-63
2021/03/03 01:16:55;;;;;;;11.25;9.20;;;;;;;10.22;51.93;102200.56;4922092;28;125190;-63
2021/03/03 01:19:21;;;;;;;11.32;9.43;;;;;;;10.17;51.98;102195.81;4922545;28;97993;-63
2021/03/03 01:21:48;;;;;;;12.45;9.82;;;;;;;10.16;51.92;102196.88;4922483;28;100103;-63
2021/03/03 01:24:14;;;;;;;11.32;9.05;;;;;;;10.14;51.40;102196.28;4921267;28;120636;-63
2021/03/03 01:26:41;;;;;;;10.75;8.95;;;;;;;10.12;50.91;102197.56;4923106;28;98042;-63
2021/03/03 01:29:07;;;;;;;11.55;9.02;;;;;;;10.13;52.06;102196.50;4921551;28;118000;-63
2021/03/03 01:31:33;;;;;;;10.55;8.88;;;;;;;10.08;51.82;102198.00;4920873;28;127473;-63
2021/03/03 01:34:00;;;;;;;12.13;9.30;;;;;;;10.09;51.39;102193.41;4905080;28;98411;-63
2021/03/03 01:36:26;;;;;;;11.23;9.30;;;;;;;10.06;51.26;102191.16;4921526;28;122480;-63
2021/03/03 01:38:52;;;;;;;10.73;9.13;;;;;;;10.08;51.74;102181.00;4922838;28;97859;-63
2021/03/03 01:41:18;;;;;;;10.90;9.07;;;;;;;10.01;51.66;102186.44;4921618;28;128633;-63
2021/03/03 01:43:44;;;;;;;10.40;8.98;;;;;;;9.97;52.05;102193.31;4919686;28;113091;-63
2021/03/03 01:46:10;;;;;;;10.65;8.80;;;;;;;9.97;51.14;102179.03;4923827;28;126248;-63
2021/03/03 01:48:36;;;;;;;12.88;9.38;;;;;;;9.95;51.08;102181.16;4930035;28;116780;-63
2021/03/03 01:51:03;;;;;;;12.38;8.93;;;;;;;9.94;51.86;102169.56;4922170;28;98406;-63
2021/03/03 01:53:31;;;;;;;11.25;9.07;;;;;;;9.95;51.93;102165.81;4903821;28;126632;-63
2021/03/03 01:55:57;;;;;;;10.95;8.73;;;;;;;9.91;51.80;102166.47;4923837;28;98169;-63
2021/03/03 01:58:24;;;;;;;10.40;8.60;;;;;;;9.90;51.95;102162.09;4923201;28;119097;-63
2021/03/03 02:00:50;;;;;;;12.50;8.70;;;;;;;9.86;51.34;102164.41;4925516;28;98259;-63
2021/03/03 02:03:17;;;;;;;10.63;8.57;;;;;;;9.83;51.50;102151.41;4924180;28;124268;-63
2021/03/03 02:05:43;;;;;;;11.82;8.93;;;;;;;9.82;51.55;102152.44;4923339;28;100008;-63
2021/03/03 02:08:25;;;;;;;11.10;8.55;;;;;;;9.81;52.28;102148.94;4908408;28;97957;-63
2021/03/03 02:11:22;;;;;;;11.63;8.75;;;;;;;9.76;51.91;102140.69;4922249;28;120462;-63
2021/03/03 02:13:58;;;;;;;10.15;8.50;;;;;;;9.75;51.78;102141.75;4910338;28;126366;-63
2021/03/03 02:16:24;;;;;;;11.60;8.82;;;;;;;9.74;51.96;102142.78;4908254;28;98490;-63
2021/03/03 02:18:50;;;;;;;13.82;8.98;;;;;;;9.71;51.47;102134.34;4906537;28;116978;-63
2021/03/03 02:21:28;;;;;;;11.05;9.00;;;;;;;9.70;52.01;102128.09;4923129;28;107861;-63
2021/03/03 02:24:23;;;;;;;12.32;8.60;;;;;;;9.65;51.81;102132.50;4892422;28;100130;-63
2021/03/03 02:26:51;;;;;;;11.13;8.77;;;;;;;9.66;51.23;102123.38;4923769;28;97949;-63
2021/03/03 02:29:28;;;;;;;9.75;8.43;;;;;;;9.64;51.80;102123.63;4905745;28;100292;-63
2021/03/03 02:31:54;;;;;;;10.93;8.50;;;;;;;9.66;52.19;102115.31;4934344;28;117155;-63
2021/03/03 02:34:23;;;;;;;11.55;8.48;;;;;;;9.66;52.02;102118.81;4902332;28;128199;-63
2021/03/03 02:36:50;;;;;;;10.07;8.73;;;;;;;9.62;51.32;102109.53;4919347;28;120954;-63
2021/03/03 02:39:16;;;;;;;11.60;8.60;;;;;;;9.65;51.95;102108.28;4923759;28;114629;-63
2021/03/03 02:41:42;;;;;;;9.82;8.20;;;;;;;9.58;51.81;102105.63;4923706;28;98788;-63
2021/03/03 02:44:08;;;;;;;10.73;8.35;;;;;;;9.59;51.67;102102.75;4924604;28;98400;-63
2021/03/03 02:46:35;;;;;;;10.70;8.38;;;;;;;9.59;51.65;102104.63;4924212;28;127443;-63
2021/03/03 02:49:04;;;;;;;10.23;8.50;;;;;;;9.56;51.59;102099.66;4923528;28;97966;-63
2021/03/03 02:51:30;;;;;;;11.68;8.63;;;;;;;9.58;52.09;102094.88;4923104;28;98261;-63
2021/03/03 02:53:56;;;;;;;10.95;8.35;;;;;;;9.57;51.63;102088.66;4923186;28;99005;-63
2021/03/03 02:56:25;;;;;;;10.80;8.70;;;;;;;9.54;51.58;102089.09;4923691;28;128157;-63
2021/03/03 02:58:52;;;;;;;10.57;8.18;;;;;;;9.55;51.65;102092.66;4922139;28;98099;-63
2021/03/03 03:01:18;;;;;;;10.77;8.35;;;;;;;9.51;51.81;102086.03;4921553;28;126853;-63
2021/03/03 03:04:03;;;;;;;11.00;8.50;;;;;;;9.47;51.70;102085.66;4922535;28;99094;-63
2021/03/03 03:06:34;;;;;;;10.15;8.65;;;;;;;9.46;51.94;102089.38;4920769;28;119517;-63
2021/03/03 03:09:05;;;;;;;11.20;8.40;;;;;;;9.45;51.36;102087.75;4906659;28;98107;-63
2021/03/03 03:11:31;;;;;;;10.05;8.30;;;;;;;9.43;51.72;102087.16;4922455;28;104487;-63
2021/03/03 03:14:13;;;;;;;10.57;8.52;;;;;;;9.44;51.63;102088.78;4905769;28;126724;-63
2021/03/03 03:16:39;;;;;;;10.63;8.13;;;;;;;9.41;51.84;102085.72;4908823;28;98202;-63
2021/03/03 03:19:11;;;;;;;11.18;8.65;;;;;;;9.43;51.67;102095.22;4926504;28;99886;-63
2021/03/03 03:21:38;;;;;;;10.30;8.03;;;;;;;9.38;51.13;102091.53;4921909;28;124227;-63
2021/03/03 03:24:05;;;;;;;10.75;8.70;;;;;;;9.44;51.89;102094.19;4955625;28;99235;-63
2021/03/03 03:26:31;;;;;;;11.88;8.85;;;;;;;9.37;51.59;102093.41;4921689;28;121174;-63
2021/03/03 03:28:57;;;;;;;10.82;8.20;;;;;;;9.38;51.85;102099.59;4922497;28;106246;-63
2021/03/03 03:31:23;;;;;;;10.68;8.35;;;;;;;9.37;51.52;102101.47;4922245;28;98740;-63
2021/03/03 03:33:50;;;;;;;10.90;8.55;;;;;;;9.33;51.48;102100.28;4923469;28;127877;-63
2021/03/03 03:36:16;;;;;;;10.75;8.82;;;;;;;9.30;52.01;102100.69;4953655;28;128602;-63
2021/03/03 03:38:42;;;;;;;10.52;8.40;;;;;;;9.29;51.43;102099.88;4923848;28;103569;-63
2021/03/03 03:41:08;;;;;;;11.25;8.50;;;;;;;9.33;51.38;102095.72;4937547;28;127858;-63
2021/03/03 03:43:34;;;;;;;12.00;9.15;;;;;;;9.27;51.00;102093.06;4904817;28;127987;-63
2021/03/03 03:46:01;;;;;;;11.05;8.60;;;;;;;9.26;51.04;102094.13;4920560;28;113571;-63
2021/03/03 03:48:28;;;;;;;10.95;8.30;;;;;;;9.22;51.32;102095.59;4906760;28;97938;-63
2021/03/03 03:50:57;;;;;;;10.02;8.23;;;;;;;9.25;51.45;102087.91;4921306;28;119637;-63
2021/03/03 03:53:23;;;;;;;10.75;8.35;;;;;;;9.18;51.58;102087.13;4924199;28;98448;-63
2021/03/03 03:55:49;;;;;;;10.60;8.27;;;;;;;9.21;51.74;102086.69;4905190;28;125078;-63
2021/03/03 03:58:15;;;;;;;11.35;8.70;;;;;;;9.19;51.36;102093.34;4923337;28;101243;-63
2021/03/03 04:00:41;;;;;;;10.55;8.35;;;;;;;9.16;51.53;102091.94;4921373;28;109548;-63
2021/03/03 04:03:07;;;;;;;10.35;8.23;;;;;;;9.14;50.91;102098.56;4923756;28;98621;-63
2021/03/03 04:05:33;;;;;;;10.65;8.52;;;;;;;9.19;51.57;102086.09;4922508;28;128255;-63
2021/03/03 04:07:59;;;;;;;9.65;8.27;;;;;;;9.14;51.16;102077.84;4922739;28;117952;-63
2021/03/03 04:10:27;;;;;;;10.30;8.45;;;;;;;9.19;51.46;102082.56;4922090;28;126642;-63
2021/03/03 04:12:54;;;;;;;10.43;8.25;;;;;;;9.16;51.27;102083.84;4922466;28;122136;-63
2021/03/03 04:15:20;;;;;;;10.20;8.20;;;;;;;9.12;51.41;102087.16;4922200;28;120915;-63
2021/03/03 04:17:46;;;;;;;9.80;8.18;;;;;;;9.05;51.23;102082.69;4922984;28;98603;-63
2021/03/03 04:20:12;;;;;;;9.75;7.82;;;;;;;9.05;51.34;102082.69;4922862;28;127965;-63
2021/03/03 04:22:39;;;;;;;12.55;8.57;;;;;;;9.09;51.73;102078.50;4920431;28;118249;-63
2021/03/03 04:25:08;;;;;;;10.20;8.40;;;;;;;9.05;51.14;102081.88;4954802;28;98370;-63
2021/03/03 04:27:34;;;;;;;10.05;8.05;;;;;;;9.05;51.24;102081.88;4923681;28;97855;-63
2021/03/03 04:30:00;;;;;;;10.93;8.30;;;;;;;9.02;51.45;102082.28;4922606;28;122946;-63
2021/03/03 04:32:26;;;;;;;11.13;8.43;;;;;;;9.03;51.47;102083.94;4922472;28;127123;-63
2021/03/03 04:34:52;;;;;;;9.25;7.82;;;;;;;9.05;51.61;102080.00;4922457;28;104318;-63
2021/03/03 04:37:18;;;;;;;9.95;8.02;;;;;;;9.01;51.51;102080.66;4923274;28;117873;-63
2021/03/03 04:39:44;;;;;;;9.82;7.75;;;;;;;9.00;51.61;102084.34;4953999;28;102436;-63
2021/03/03 04:42:11;;;;;;;11.80;8.35;;;;;;;9.02;51.37;102082.28;4903795;28;127523;-63
2021/03/03 04:44:37;;;;;;;11.20;8.25;;;;;;;8.95;51.05;102071.56;4919912;28;127499;-63
2021/03/03 04:47:03;;;;;;;12.63;8.80;;;;;;;8.96;51.50;102075.94;4922810;28;116736;-63
2021/03/03 04:49:29;;;;;;;11.23;9.07;;;;;;;8.97;51.36;102074.88;4922544;28;99757;-63
2021/03/03 04:51:55;;;;;;;11.45;9.10;;;;;;;8.94;51.18;102072.63;4922888;28;122416;-63
2021/03/03 04:54:21;;;;;;;10.90;9.23;;;;;;;8.92;51.30;102068.50;4922452;28;127675;-63
2021/03/03 04:56:47;;;;;;;11.00;9.10;;;;;;;8.91;50.85;102066.84;4922513;28;118503;-63
2021/03/03 04:59:13;;;;;;;12.65;9.68;;;;;;;8.86;51.56;102070.19;4921613;28;128051;-63
2021/03/03 05:01:39;;;;;;;11.20;8.88;;;;;;;8.94;51.47;102069.09;4920520;28;128103;-63
2021/03/03 05:04:06;;;;;;;12.20;9.38;;;;;;;8.92;51.16;102058.59;4920730;28;97983;-63
2021/03/03 05:06:32;;;;;;;10.88;8.68;;;;;;;8.99;51.28;102047.75;4922763;28;117231;-63
2021/03/03 05:08:58;;;;;;;11.60;9.23;;;;;;;9.00;50.94;102049.41;4921199;28;97989;-63
2021/03/03 05:11:24;;;;;;;12.90;9.30;;;;;;;9.03;50.77;102051.66;4903848;28;127099;-63
2021/03/03 05:13:50;;;;;;;12.48;9.57;;;;;;;9.02;50.61;102048.16;4922591;28;126496;-63
2021/03/03 05:16:17;;;;;;;12.73;9.40;;;;;;;9.00;50.81;102039.47;4922132;28;117692;-63
2021/03/03 05:18:43;;;;;;;11.38;9.15;;;;;;;9.00;50.81;102046.69;4922068;28;127583;-63
2021/03/03 05:21:09;;;;;;;12.75;9.52;;;;;;;9.00;50.48;102047.56;4922024;28;117715;-63
2021/03/03 05:23:36;;;;;;;12.77;10.13;;;;;;;9.00;50.53;102044.88;4921284;28;113532;-63
2021/03/03 05:26:03;;;;;;;13.23;10.00;;;;;;;9.00;51.05;102044.00;4922879;28;97806;-63
2021/03/03 05:28:29;;;;;;;12.57;9.68;;;;;;;9.04;50.31;102039.88;4921184;28;122054;-63
2021/03/03 05:30:55;;;;;;;12.38;9.95;;;;;;;8.99;50.84;102040.50;4921908;28;123765;-63
2021/03/03 05:33:29;;;;;;;13.07;10.10;;;;;;;9.00;50.69;102038.63;4922453;28;98532;-63
2021/03/03 05:35:58;;;;;;;12.07;9.70;;;;;;;8.96;50.92;102045.50;4921547;28;113155;-63
2021/03/03 05:38:24;;;;;;;13.07;10.02;;;;;;;8.93;50.80;102040.56;4953131;28;108210;-63
2021/03/03 05:40:51;;;;;;;13.88;10.40;;;;;;;8.95;51.26;102050.06;4922532;28;98186;-63
2021/03/03 05:43:17;;;;;;;12.27;9.77;;;;;;;8.94;50.19;102044.91;4953310;28;98683;-63
2021/03/03 05:45:44;;;;;;;13.63;9.82;;;;;;;9.00;50.72;102052.09;4935932;28;116071;-63
2021/03/03 05:48:24;;;;;;;11.85;9.73;;;;;;;8.90;50.83;102063.34;4921367;28;98378;-63
2021/03/03 05:51:00;;;;;;;12.18;9.65;;;;;;;8.93;50.69;102064.78;4921032;28;98608;-63
2021/03/03 05:53:26;;;;;;;11.57;9.52;;;;;;;8.96;50.70;102059.78;4922198;28;105346;-63
2021/03/03 05:56:04;;;;;;;11.55;9.38;;;;;;;8.96;50.99;102062.47;4922178;28;104063;-63
2021/03/03 05:58:32;;;;;;;11.65;9.52;;;;;;;8.96;50.81;102062.47;4921146;28;123352;-63
2021/03/03 06:01:00;;;;;;;11.88;9.55;;;;;;;8.91;50.53;102067.66;4922098;28;97772;-63
2021/03/03 06:03:27;;;;;;;11.82;9.70;;;;;;;8.95;50.57;102068.06;4921075;28;120424;-63
2021/03/03 06:05:53;;;;;;;12.93;9.10;;;;;;;8.98;51.03;102054.19;4920963;28;98016;-63
2021/03/03 06:08:24;;;;;;;10.48;8.80;;;;;;;8.97;51.06;102058.75;4921096;28;120941;-63
2021/03/03 06:10:50;;;;;;;11.40;8.82;;;;;;;8.92;50.61;102053.19;4921552;28;105406;-63
2021/03/03 06:13:16;;;;;;;11.48;8.80;;;;;;;8.96;50.94;102049.03;4920826;28;119797;-63
2021/03/03 06:15:42;;;;;;;10.93;8.40;;;;;;;8.97;51.08;102044.47;4922808;28;97975;-63
2021/03/03 06:18:10;;;;;;;12.43;9.05;;;;;;;8.98;51.42;102040.72;4921350;28;126318;-63
2021/03/03 06:20:41;;;;;;;11.23;8.65;;;;;;;9.06;51.97;102048.53;4921787;28;99038;-63
2021/03/03 06:23:28;;;;;;;12.55;8.90;;;;;;;9.05;51.81;102046.91;4922137;28;98461;-63
2021/03/03 06:26:03;;;;;;;12.35;8.80;;;;;;;9.06;52.12;102043.97;4921737;28;97734;-63
2021/03/03 06:28:45;;;;;;;11.40;8.57;;;;;;;9.06;52.89;102041.28;4922205;28;99058;-63
2021/03/03 06:31:31;;;;;;;12.63;9.23;;;;;;;9.06;52.19;102037.78;4922018;28;98571;-63
2021/03/03 06:34:22;;;;;;;11.68;8.65;;;;;;;9.16;52.39;102037.28;4922009;28;97827;-63
2021/03/03 06:37:09;;;;;;;12.35;8.82;;;;;;;9.18;53.32;102040.56;4920295;28;97767;-63
2021/03/03 06:39:38;;;;;;;11.52;8.50;;;;;;;9.24;52.93;102039.72;4920649;28;124280;-63
2021/03/03 06:42:11;;;;;;;12.15;8.60;;;;;;;9.25;53.26;102033.28;4924075;28;119967;-63
2021/03/03 06:44:51;;;;;;;13.10;9.02;;;;;;;9.27;53.45;102033.88;4924655;28;98353;-63
2021/03/03 06:47:18;;;;;;;10.88;8.50;;;;;;;9.28;53.26;102035.53;4925116;28;97620;-63
2021/03/03 06:49:45;;;;;;;11.60;8.52;;;;;;;9.33;53.61;102035.69;4924572;28;98037;-63
2021/03/03 06:52:11;;;;;;;10.95;8.57;;;;;;;9.43;53.31;102030.63;4907011;28;98368;-63
2021/03/03 06:54:37;;;;;;;11.75;8.85;;;;;;;9.49;53.58;102029.72;4955239;28;126262;-63
2021/03/03 06:57:14;;;;;;;11.95;9.07;;;;;;;9.51;53.42;102033.03;4890649;28;118491;-63
2021/03/03 06:59:44;;;;;;;11.65;8.90;;;;;;;9.56;53.22;102027.78;4938291;28;97929;-63
2021/03/03 07:02:15;;;;;;;10.65;8.60;;;;;;;9.63;53.42;102021.50;4923570;28;128285;-63
2021/03/03 07:04:54;;;;;;;11.65;8.55;;;;;;;9.68;53.76;102022.50;4923718;28;98360;-63
2021/03/03 07:07:20;;;;;;;12.25;9.05;;;;;;;9.75;53.34;102023.25;4922545;28;110841;-63
2021/03/03 07:09:47;;;;;;;13.65;9.15;;;;;;;9.79;54.01;102023.63;4923333;28;128165;-63
2021/03/03 07:12:21;;;;;;;11.75;9.07;;;;;;;9.84;53.91;102024.59;4923992;28;98408;-63
2021/03/03 07:15:10;;;;;;;12.77;9.68;;;;;;;9.95;54.30;102024.91;4924188;28;98439;-63
2021/03/03 07:17:40;;;;;;;11.95;9.20;;;;;;;9.98;54.68;102024.44;4923343;28;97924;-63
2021/03/03 07:20:07;;;;;;;11.20;8.98;;;;;;;10.08;54.56;102022.03;4922205;28;99120;-63
2021/03/03 07:22:38;;;;;;;12.00;8.68;;;;;;;10.18;54.20;102026.88;4924653;28;98934;-63
2021/03/03 07:25:17;;;;;;;12.63;9.95;;;;;;;10.31;53.83;102026.75;4923440;28;117297;-63
2021/03/03 07:27:45;;;;;;;12.57;9.23;;;;;;;10.42;54.44;102017.06;4905844;28;111881;-63
2021/03/03 07:30:31;;;;;;;11.48;9.35;;;;;;;10.56;54.12;102016.63;4905184;28;99001;-63
2021/03/03 07:32:57;;;;;;;12.32;9.48;;;;;;;10.67;53.97;102006.94;4923480;28;98882;-63
2021/03/03 07:35:24;;;;;;;12.77;9.55;;;;;;;10.86;53.88;102007.69;4889743;28;98577;-63
2021/03/03 07:37:54;;;;;;;11.10;9.40;;;;;;;10.99;53.71;102012.88;4923659;28;97883;-63
2021/03/03 07:40:23;;;;;;;13.05;9.90;;;;;;;11.20;53.46;102016.06;4954848;28;98250;-63
2021/03/03 07:42:54;;;;;;;12.18;9.48;;;;;;;11.37;53.35;102010.78;4923138;28;98993;-63
2021/03/03 07:45:21;;;;;;;12.63;9.48;;;;;;;11.53;52.70;102010.88;4924161;28;97984;-63
2021/03/03 07:47:48;;;;;;;12.70;9.80;;;;;;;11.72;52.62;102013.47;4927175;28;118337;-63
2021/03/03 07:50:22;;;;;;;13.25;9.98;;;;;;;11.94;52.87;102014.47;4921316;28;124148;-63
2021/03/03 07:52:53;;;;;;;12.15;9.52;;;;;;;12.23;52.25;101998.31;4920068;28;118738;-63
2021/03/03 07:55:19;;;;;;;12.82;9.93;;;;;;;12.51;51.76;102001.00;4905773;28;98281;-63
2021/03/03 07:57:50;;;;;;;12.98;10.38;;;;;;;12.76;51.45;101995.19;4923737;28;106910;-63
2021/03/03 08:00:32;;;;;;;13.55;9.93;;;;;;;13.07;51.05;101989.47;4905214;28;118870;-63
2021/03/03 08:02:58;;;;;;;13.48;10.10;;;;;;;13.42;50.43;101986.50;4889568;28;100308;-63
2021/03/03 08:05:36;;;;;;;11.98;9.70;;;;;;;13.71;50.51;101981.72;4905101;28;98312;-63
2021/03/03 08:08:16;;;;;;;12.30;9.90;;;;;;;14.37;49.38;101973.53;4922981;28;97868;-63
2021/03/03 08:10:44;;;;;;;11.32;9.90;;;;;;;15.23;47.39;101965.28;4923607;28;99045;-64
2021/03/03 08:13:15;;;;;;;11.98;9.95;;;;;;;16.32;45.02;101969.03;4922996;28;128975;-64
2021/03/03 08:15:48;;;;;;;11.85;9.77;;;;;;;17.33;43.24;101963.81;4923291;28;97975;-64
2021/03/03 08:18:17;;;;;;;12.32;9.98;;;;;;;18.52;40.92;101963.00;4922053;28;98075;-64
2021/03/03 08:20:48;;;;;;;10.52;9.43;;;;;;;19.28;39.65;101945.91;4923159;28;98465;-64
2021/03/03 08:23:37;;;;;;;10.70;9.03;;;;;;;20.18;38.51;101952.44;4905847;28;98190;-64
2021/03/03 08:26:11;;;;;;;9.50;8.50;;;;;;;20.59;37.87;101946.34;4921401;28;98216;-64
2021/03/03 08:28:40;;;;;;;9.75;8.82;;;;;;;21.67;36.30;101947.91;4921662;28;97874;-64
2021/03/03 08:31:15;;;;;;;9.48;8.57;;;;;;;22.54;35.34;101944.81;4923499;28;104279;-64
2021/03/03 08:33:51;;;;;;;10.10;9.00;;;;;;;23.52;34.36;101941.13;4923126;28;99341;-65
2021/03/03 08:36:24;;;;;;;9.50;8.50;;;;;;;24.20;33.02;101944.28;4922642;28;98464;-65
2021/03/03 08:38:56;;;;;;;8.75;7.95;;;;;;;24.84;33.26;101946.38;4921388;28;97737;-65
2021/03/03 08:41:25;;;;;;;8.50;7.65;;;;;;;25.12;32.52;101945.97;4921368;28;97979;-65
2021/03/03 08:44:11;;;;;;;8.27;7.47;;;;;;;25.76;32.13;101939.44;4923351;28;98770;-65
2021/03/03 08:46:39;;;;;;;8.20;7.40;;;;;;;26.45;31.59;101950.00;4921931;28;106681;-65
2021/03/03 08:49:05;;;;;;;8.43;7.63;;;;;;;27.07;31.23;101943.44;4920526;28;97998;-65
2021/03/03 08:51:47;;;;;;;7.63;6.88;;;;;;;28.08;29.73;101939.91;4923206;28;97934;-65
2021/03/03 08:54:21;;;;;;;7.60;6.90;;;;;;;29.06;28.78;101945.00;4922198;28;121874;-65
2021/03/03 08:56:48;;;;;;;6.95;6.35;;;;;;;30.13;27.43;101943.06;4922486;28;98202;-65
2021/03/03 08:59:32;;;;;;;7.10;6.50;;;;;;;30.79;27.03;101940.03;4922874;28;97671;-65
2021/03/03 09:02:20;;;;;;;6.80;6.20;;;;;;;31.62;26.56;101931.00;4922568;28;99197;-65
2021/03/03 09:04:51;;;;;;;7.25;6.65;;;;;;;32.53;25.43;101937.31;4921741;28;99163;-65
2021/03/03 09:07:29;;;;;;;6.73;6.13;;;;;;;32.92;25.50;101932.09;4923302;28;98310;-65
2021/03/03 09:09:57;;;;;;;6.82;6.15;;;;;;;33.09;25.50;101930.69;4922350;28;97924;-65
2021/03/03 09:12:38;;;;;;;6.45;5.95;;;;;;;33.54;24.87;101928.63;4922274;28;125031;-66
2021/03/03 09:15:05;;;;;;;6.07;5.57;;;;;;;34.09;24.18;101934.09;4921675;28;109621;-65
2021/03/03 09:17:34;;;;;;;6.00;5.50;;;;;;;34.34;24.33;101924.94;4922305;28;115107;-65
2021/03/03 09:20:17;;;;;;;5.80;5.32;;;;;;;34.88;23.83;101923.03;4953508;28;97694;-65
2021/03/03 09:22:45;;;;;;;5.63;5.13;;;;;;;34.98;23.79;101924.22;4921274;28;98765;-66
2021/03/03 09:25:17;;;;;;;6.13;5.60;;;;;;;34.59;24.01;101925.84;4919397;28;121201;-65
2021/03/03 09:27:54;;;;;;;5.90;5.40;;;;;;;34.58;24.52;101909.44;4922630;28;98616;-65
2021/03/03 09:30:25;;;;;;;5.38;4.88;;;;;;;34.59;24.71;101916.66;4922413;28;107896;-66
2021/03/03 09:32:51;;;;;;;;;;;;;;;35.04;24.32;101906.66;4921149;28;98454;-66
2021/03/03 09:35:29;;;;;;;5.32;4.82;;;;;;;34.64;24.50;101905.84;4921836;28;127791;-65
2021/03/03 09:37:56;;;;;;;5.20;4.80;;;;;;;34.96;24.65;101899.44;4900945;28;98503;-65
2021/03/03 09:40:27;;;;;;;5.03;4.57;;;;;;;35.43;23.76;101894.59;4901637;28;97795;-65
2021/03/03 09:42:53;;;;;;;5.07;4.68;;;;;;;36.49;22.66;101891.72;4906653;28;119934;-66
2021/03/03 09:45:23;;;;;;;5.30;4.80;;;;;;;37.41;22.01;101897.72;4921532;28;127908;-66
2021/03/03 09:47:49;;;;;;;5.40;4.93;;;;;;;38.24;20.94;101904.69;4921285;28;114305;-66
2021/03/03 09:50:21;;;;;;;4.85;4.45;;;;;;;38.47;20.42;101889.88;4904937;28;98001;-66
2021/03/03 09:52:55;;;;;;;4.68;4.28;;;;;;;38.77;20.28;101885.38;4920491;28;99074;-65
2021/03/03 09:55:33;;;;;;;4.85;4.45;;;;;;;39.38;19.35;101878.63;4922491;28;98048;-65
2021/03/03 09:57:59;;;;;;;4.60;4.20;;;;;;;39.38;19.31;101879.44;4911631;28;98049;-65
2021/03/03 10:00:35;;;;;;;4.68;4.28;;;;;;;39.41;19.56;101872.94;4922871;28;98058;-63
2021/03/03 10:03:13;;;;;;;4.30;3.95;;;;;;;39.48;19.42;101872.00;4921293;28;117361;-63
2021/03/03 10:05:40;;;;;;;4.60;4.20;;;;;;;39.94;19.22;101875.88;4920354;28;98994;-63
2021/03/03 10:08:11;;;;;;;4.50;4.10;;;;;;;40.31;18.66;101862.53;4903961;28;98116;-63
2021/03/03 10:10:39;;;;;;;4.80;4.30;;;;;;;40.36;18.66;101862.78;4919614;28;97864;-63
2021/03/03 10:13:06;;;;;;;4.15;3.85;;;;;;;40.97;17.93;101864.88;4920051;28;98978;-63
2021/03/03 10:15:34;;;;;;;4.25;3.85;;;;;;;41.11;17.87;101865.72;4924580;28;97874;-63
2021/03/03 10:18:02;;;;;;;4.47;4.07;;;;;;;41.57;17.17;101861.56;4924683;28;98101;-63
2021/03/03 10:20:52;;;;;;;5.15;3.75;;;;;;;42.92;16.36;101855.59;4925324;28;97831;-63
2021/03/03 10:23:20;;;;;;;3.80;3.50;;;;;;;42.11;17.05;101854.28;4917544;28;103994;-64
2021/03/03 10:26:00;;;;;;;3.83;3.53;;;;;;;41.64;17.05;101849.25;4924671;28;111705;-63
2021/03/03 10:28:27;;;;;;;4.40;3.97;;;;;;;41.36;17.69;101846.00;4924848;28;116154;-63
2021/03/03 10:30:57;;;;;;;4.22;3.67;;;;;;;41.15;18.04;101835.31;4922698;28;113546;-63
2021/03/03 10:33:42;;;;;;;4.20;3.90;;;;;;;42.18;16.92;101835.00;4924966;28;99146;-63
2021/03/03 10:36:14;;;;;;;3.95;3.65;;;;;;;41.76;17.21;101828.66;4924912;28;107315;-63
2021/03/03 10:38:56;;;;;;;4.00;3.70;;;;;;;41.67;17.45;101831.38;4925586;28;98041;-63
2021/03/03 10:41:33;;;;;;;4.40;4.00;;;;;;;41.37;17.75;101829.84;4923312;28;97854;-63
2021/03/03 10:44:01;;;;;;;4.10;3.80;;;;;;;41.06;18.05;101827.47;4923521;28;98653;-63
2021/03/03 10:46:27;;;;;;;4.05;3.65;;;;;;;40.89;18.01;101820.28;4924536;28;98507;-63
2021/03/03 10:48:55;;;;;;;4.05;3.53;;;;;;;40.93;18.25;101815.31;4925369;28;98048;-63
2021/03/03 10:51:34;;;;;;;4.22;3.88;;;;;;;40.84;18.35;101807.50;4924480;28;97999;-62
2021/03/03 10:54:00;;;;;;;4.13;3.83;;;;;;;39.68;19.62;101810.75;4923824;28;106690;-62
2021/03/03 10:56:34;;;;;;;4.45;3.65;;;;;;;38.88;20.07;101803.53;4921826;28;128384;-63
2021/03/03 10:59:24;;;;;;;11.38;7.65;;;;;;;35.45;17.24;101793.28;4922724;28;99194;-61
2021/03/03 11:01:56;;;;;;;10.48;9.38;;;;;;;33.15;17.96;101788.72;4925241;28;98097;-61
2021/03/03 11:04:22;;;;;;;10.82;9.73;;;;;;;32.12;18.95;101777.53;4924353;28;98541;-62
2021/03/03 11:06:48;;;;;;;11.77;10.20;;;;;;;30.32;20.66;101771.50;4905260;28;128188;-61
2021/03/03 11:09:16;;;;;;;10.25;8.73;;;;;;;31.44;22.74;101780.38;4923319;28;125358;-60
2021/03/03 11:11:55;;;;;;;7.72;6.25;;;;;;;32.52;24.69;101770.34;4924811;28;97900;-60
2021/03/03 11:14:21;;;;;;;7.63;5.30;;;;;;;32.54;26.31;101770.72;4922947;28;98400;-60
2021/03/03 11:16:48;;;;;;;5.65;5.00;;;;;;;32.50;27.88;101779.91;4907152;28;98501;-59
2021/03/03 11:19:14;;;;;;;5.32;4.82;;;;;;;32.08;29.68;101779.50;4924340;28;98522;-59
2021/03/03 11:21:40;;;;;;;5.03;4.53;;;;;;;31.62;31.09;101774.19;4924832;28;97943;-60
2021/03/03 11:24:07;;;;;;;5.72;5.22;;;;;;;31.49;31.90;101768.88;4923545;28;128169;-60
2021/03/03 11:26:35;;;;;;;5.65;5.15;;;;;;;31.83;31.75;101771.63;4922547;28;122976;-59
2021/03/03 11:29:01;;;;;;;4.95;4.45;;;;;;;31.55;32.91;101769.31;4921806;28;98662;-59
2021/03/03 11:31:28;;;;;;;5.25;4.78;;;;;;;31.82;32.82;101760.88;4924067;28;105797;-60